Time;durP1;ratioP1;P1;durP2;ratioP2;P2;SDS_P1;SDS_P2;PMS_P1;PMS_P2;Temp;Humidity;BMP_temperature;BMP_pressure;BME280_temperature;BME280_humidity;BME280_pressure;Samples;Min_cycle;Max_cycle;Signal;HPM_P1;HPM_P2
2023/12/21 00:01:44;;;;;;;3.45;1.73;;;9.00;99.90;;;;;;5033511;28;20523;-82
2023/12/21 00:04:10;;;;;;;1.88;1.08;;;9.00;99.90;;;;;;5017084;28;20033;-84
2023/12/21 00:06:36;;;;;;;2.20;1.40;;;9.00;99.90;;;;;;5016928;28;20045;-83
2023/12/21 00:09:02;;;;;;;4.22;1.90;;;9.00;99.90;;;;;;5033268;28;20099;-82
2023/12/21 00:11:28;;;;;;;2.25;1.60;;;9.00;99.90;;;;;;5017053;28;20038;-83
2023/12/21 00:13:53;;;;;;;1.98;1.38;;;9.00;99.90;;;;;;5033266;28;20033;-83
2023/12/21 00:16:19;;;;;;;4.00;1.60;;;9.00;99.90;;;;;;5033441;28;20497;-82
2023/12/21 00:18:44;;;;;;;2.72;1.60;;;9.00;99.90;;;;;;5016564;28;20041;-82
2023/12/21 00:21:10;;;;;;;1.38;1.27;;;9.00;99.90;;;;;;5033075;28;20092;-82
2023/12/21 00:23:36;;;;;;;3.15;1.55;;;9.00;99.90;;;;;;5033049;28;20497;-83
2023/12/21 00:26:01;;;;;;;1.45;1.08;;;9.00;99.90;;;;;;5016515;28;20037;-83
2023/12/21 00:28:27;;;;;;;3.03;1.30;;;9.00;99.90;;;;;;5032926;28;20045;-83
2023/12/21 00:30:53;;;;;;;2.78;1.75;;;9.00;99.90;;;;;;5016521;28;20497;-82
2023/12/21 00:33:18;;;;;;;2.95;1.55;;;9.00;99.90;;;;;;5033053;28;20045;-82
2023/12/21 00:35:44;;;;;;;1.60;1.02;;;9.00;99.90;;;;;;5032893;28;20120;-83
2023/12/21 00:38:10;;;;;;;3.38;1.75;;;9.00;99.90;;;;;;5032859;28;20854;-82
2023/12/21 00:40:35;;;;;;;3.25;1.50;;;9.10;99.90;;;;;;5033118;28;20052;-81
2023/12/21 00:43:01;;;;;;;3.47;1.63;;;9.00;99.90;;;;;;5031597;28;20055;-80
2023/12/21 00:45:27;;;;;;;3.17;1.63;;;9.00;99.90;;;;;;5032689;28;20570;-80
2023/12/21 00:47:54;;;;;;;2.65;1.60;;;9.00;99.90;;;;;;5033028;28;20124;-81
2023/12/21 00:50:19;;;;;;;2.45;1.40;;;9.10;99.90;;;;;;5016196;28;20033;-80
2023/12/21 00:52:45;;;;;;;2.65;1.50;;;9.10;99.90;;;;;;5032715;28;20128;-80
2023/12/21 00:55:11;;;;;;;3.22;1.55;;;9.10;99.90;;;;;;5032654;28;20103;-80
2023/12/21 00:57:36;;;;;;;2.40;1.10;;;9.00;99.90;;;;;;5032598;28;20149;-80
2023/12/21 01:00:02;;;;;;;2.28;1.45;;;9.10;99.90;;;;;;5016827;28;20045;-83
2023/12/21 01:02:28;;;;;;;2.47;1.40;;;9.10;99.90;;;;;;5032453;28;20727;-83
2023/12/21 01:04:53;;;;;;;2.80;1.42;;;9.10;99.90;;;;;;5032589;28;20048;-83
2023/12/21 01:07:19;;;;;;;2.50;1.52;;;9.10;99.90;;;;;;5032501;28;20033;-83
2023/12/21 01:09:45;;;;;;;3.35;1.65;;;9.10;99.90;;;;;;5032296;28;20110;-83
2023/12/21 01:12:11;;;;;;;3.22;1.30;;;9.00;99.90;;;;;;5032178;28;20447;-83
2023/12/21 01:14:36;;;;;;;2.80;1.48;;;9.00;99.90;;;;;;5032187;28;20040;-83
2023/12/21 01:17:02;;;;;;;2.00;1.35;;;9.10;99.90;;;;;;5032095;28;20080;-83
2023/12/21 01:19:28;;;;;;;1.80;1.15;;;9.10;99.90;;;;;;5032018;28;20454;-83
2023/12/21 01:21:54;;;;;;;1.55;1.20;;;9.10;99.90;;;;;;5032314;28;20045;-83
2023/12/21 01:24:19;;;;;;;3.28;1.20;;;9.10;99.90;;;;;;5015527;28;20049;-85
2023/12/21 01:26:45;;;;;;;2.63;1.55;;;9.10;99.90;;;;;;5015402;28;20591;-82
2023/12/21 01:29:10;;;;;;;3.13;1.40;;;9.10;99.90;;;;;;5031707;28;20052;-84
2023/12/21 01:31:36;;;;;;;2.25;1.35;;;9.10;99.90;;;;;;5031747;28;20041;-82
2023/12/21 01:34:05;;;;;;;3.40;1.60;;;9.10;99.90;;;;;;5015338;28;20045;-82
2023/12/21 01:36:31;;;;;;;1.85;1.17;;;9.10;99.90;;;;;;5015193;28;20132;-83
2023/12/21 01:38:56;;;;;;;3.78;1.92;;;9.10;99.90;;;;;;5031894;28;20044;-83
2023/12/21 01:41:23;;;;;;;1.85;1.13;;;9.10;99.90;;;;;;5015174;28;20041;-82
2023/12/21 01:43:49;;;;;;;2.38;1.20;;;9.10;99.90;;;;;;5031124;28;20049;-83
2023/12/21 01:46:14;;;;;;;2.20;1.30;;;9.10;99.90;;;;;;5014810;28;20111;-83
2023/12/21 01:48:42;;;;;;;1.55;1.15;;;9.10;99.90;;;;;;5031594;28;20457;-83
2023/12/21 01:51:09;;;;;;;2.17;1.55;;;9.10;99.90;;;;;;5031540;28;20049;-78
2023/12/21 01:53:36;;;;;;;4.88;1.92;;;9.10;99.90;;;;;;5031132;28;20041;-78
2023/12/21 01:56:03;;;;;;;1.42;1.02;;;9.10;99.90;;;;;;5031397;28;20744;-78
2023/12/21 01:58:31;;;;;;;1.73;1.30;;;9.10;99.90;;;;;;5031262;28;20358;-78
2023/12/21 02:00:57;;;;;;;2.40;1.23;;;9.20;99.90;;;;;;5014712;28;20068;-79
2023/12/21 02:03:27;;;;;;;2.50;1.45;;;9.10;99.90;;;;;;5031023;28;20124;-79
2023/12/21 02:05:52;;;;;;;2.17;1.50;;;9.10;99.90;;;;;;5031289;28;20535;-78
2023/12/21 02:08:18;;;;;;;1.70;1.02;;;9.10;99.90;;;;;;5030908;28;20049;-78
2023/12/21 02:10:44;;;;;;;2.50;1.38;;;9.10;99.90;;;;;;5014480;28;20133;-83
2023/12/21 02:13:10;;;;;;;1.50;1.40;;;9.10;99.90;;;;;;5014603;28;20038;-84
2023/12/21 02:15:35;;;;;;;1.45;1.20;;;9.10;99.90;;;;;;5014558;28;20033;-83
2023/12/21 02:18:04;;;;;;;2.53;1.23;;;9.10;99.90;;;;;;5030828;28;20112;-83
2023/12/21 02:20:30;;;;;;;1.80;1.35;;;9.20;99.90;;;;;;5030913;28;20068;-83
2023/12/21 02:22:59;;;;;;;2.90;1.50;;;9.10;99.90;;;;;;5030671;28;20045;-83
2023/12/21 02:25:25;;;;;;;3.30;1.90;;;9.20;99.90;;;;;;5031319;28;20064;-84
2023/12/21 02:27:51;;;;;;;4.63;1.75;;;9.20;99.90;;;;;;5014410;28;20051;-84
2023/12/21 02:30:17;;;;;;;1.73;1.35;;;9.20;99.90;;;;;;5030692;28;20040;-83
2023/12/21 02:32:43;;;;;;;2.72;1.40;;;9.10;99.90;;;;;;5030752;28;20042;-83
2023/12/21 02:35:08;;;;;;;1.30;1.08;;;9.10;99.90;;;;;;5014577;28;20073;-83
2023/12/21 02:37:35;;;;;;;2.28;1.23;;;9.20;99.90;;;;;;5014191;28;20405;-84
2023/12/21 02:40:00;;;;;;;2.88;1.45;;;9.20;99.90;;;;;;5030893;28;20041;-83
2023/12/21 02:42:26;;;;;;;3.55;1.75;;;9.20;99.90;;;;;;5030766;28;20133;-83
2023/12/21 02:44:53;;;;;;;1.80;1.27;;;9.20;99.90;;;;;;5030514;28;20057;-82
2023/12/21 02:47:18;;;;;;;2.65;1.30;;;9.20;99.90;;;;;;5030592;28;20097;-83
2023/12/21 02:49:44;;;;;;;2.65;1.40;;;9.20;99.90;;;;;;5014131;28;20033;-83
2023/12/21 02:52:10;;;;;;;2.50;1.30;;;9.20;99.90;;;;;;5030424;28;20072;-83
2023/12/21 02:54:35;;;;;;;2.55;1.50;;;9.20;99.90;;;;;;5014140;28;20046;-84
2023/12/21 02:57:01;;;;;;;2.28;1.48;;;9.20;99.90;;;;;;5014237;28;20481;-83
2023/12/21 02:59:28;;;;;;;2.45;1.40;;;9.50;99.90;;;;;;5014206;28;20041;-83
2023/12/21 03:01:54;;;;;;;1.67;1.10;;;9.20;99.90;;;;;;5030623;28;20042;-83
2023/12/21 03:04:19;;;;;;;2.40;1.20;;;9.20;99.90;;;;;;5030307;28;20033;-83
2023/12/21 03:06:45;;;;;;;2.25;1.17;;;9.10;99.90;;;;;;5017134;28;20488;-84
2023/12/21 03:09:11;;;;;;;2.72;1.20;;;9.20;99.90;;;;;;5017785;28;20128;-83
2023/12/21 03:11:36;;;;;;;1.88;1.08;;;9.10;99.90;;;;;;5034295;28;20240;-82
2023/12/21 03:14:02;;;;;;;2.33;1.17;;;9.10;99.90;;;;;;5017783;28;20041;-83
2023/12/21 03:16:28;;;;;;;1.08;1.00;;;9.10;99.90;;;;;;5034208;28;20056;-83
2023/12/21 03:18:54;;;;;;;2.05;1.00;;;9.10;99.90;;;;;;5017881;28;20045;-83
2023/12/21 03:21:19;;;;;;;3.20;1.48;;;9.10;99.90;;;;;;5017922;28;20049;-78
2023/12/21 03:23:45;;;;;;;2.85;1.45;;;9.10;99.90;;;;;;5034012;28;20041;-78
2023/12/21 03:26:11;;;;;;;2.88;1.45;;;9.10;99.90;;;;;;5034072;28;20550;-78
2023/12/21 03:28:44;;;;;;;2.58;1.33;;;9.10;99.90;;;;;;5033957;28;20128;-78
2023/12/21 03:31:10;;;;;;;2.08;1.38;;;9.10;99.90;;;;;;5033962;28;20509;-78
2023/12/21 03:33:35;;;;;;;2.55;1.10;;;9.30;99.90;;;;;;5017602;28;20116;-78
2023/12/21 03:36:02;;;;;;;1.05;0.82;;;9.10;99.90;;;;;;5033957;28;20049;-78
2023/12/21 03:38:27;;;;;;;1.38;0.93;;;9.10;99.90;;;;;;5033898;28;20052;-78
2023/12/21 03:40:53;;;;;;;1.48;1.00;;;9.10;99.90;;;;;;5017620;28;20037;-83
2023/12/21 03:43:19;;;;;;;0.95;0.80;;;9.00;99.90;;;;;;5017234;28;20110;-83
2023/12/21 03:45:45;;;;;;;1.40;0.80;;;9.20;99.90;;;;;;5034281;28;20042;-83
2023/12/21 03:48:11;;;;;;;1.08;0.85;;;8.80;99.90;;;;;;5017037;28;20037;-82
2023/12/21 03:50:37;;;;;;;0.75;0.75;;;9.00;99.90;;;;;;5033562;28;20037;-82
2023/12/21 03:53:03;;;;;;;1.13;0.82;;;9.00;99.90;;;;;;5017001;28;20049;-82
2023/12/21 03:55:29;;;;;;;1.63;1.13;;;9.00;99.90;;;;;;5033504;28;20076;-82
2023/12/21 03:57:56;;;;;;;0.82;0.80;;;9.00;99.90;;;;;;5033474;28;20473;-82
2023/12/21 04:00:22;;;;;;;1.17;0.95;;;9.00;99.90;;;;;;5016808;28;20049;-82
2023/12/21 04:02:48;;;;;;;0.80;0.75;;;8.90;99.90;;;;;;5033333;28;20123;-82
2023/12/21 04:05:14;;;;;;;1.65;0.88;;;9.00;99.90;;;;;;5016606;28;20480;-83
2023/12/21 04:07:40;;;;;;;2.60;0.98;;;9.00;99.90;;;;;;5033284;28;20041;-82
2023/12/21 04:10:06;;;;;;;0.80;0.75;;;9.00;99.90;;;;;;5033334;28;20508;-82
2023/12/21 04:12:32;;;;;;;0.90;0.75;;;9.00;99.90;;;;;;5016502;28;20049;-83
2023/12/21 04:14:57;;;;;;;1.67;0.77;;;9.00;99.90;;;;;;5016607;28;20543;-82
2023/12/21 04:17:23;;;;;;;1.15;0.80;;;9.00;99.90;;;;;;5032873;28;20037;-82
2023/12/21 04:19:49;;;;;;;1.60;0.80;;;9.00;99.90;;;;;;5032924;28;20489;-82
2023/12/21 04:22:14;;;;;;;1.75;0.98;;;9.00;99.90;;;;;;5032868;28;20048;-82
2023/12/21 04:24:44;;;;;;;1.40;1.20;;;9.00;99.90;;;;;;5016315;28;20478;-82
2023/12/21 04:27:10;;;;;;;4.70;1.40;;;9.30;99.90;;;;;;5016269;28;20041;-82
2023/12/21 04:29:38;;;;;;;1.90;1.00;;;9.00;99.90;;;;;;5032783;28;20037;-83
2023/12/21 04:32:04;;;;;;;1.08;0.93;;;9.00;99.90;;;;;;5016394;28;20049;-78
2023/12/21 04:34:30;;;;;;;1.10;0.90;;;9.10;99.90;;;;;;5032666;28;20087;-78
2023/12/21 04:36:56;;;;;;;1.58;0.98;;;9.00;99.90;;;;;;5016204;28;20404;-78
2023/12/21 04:39:22;;;;;;;3.65;1.42;;;9.00;99.90;;;;;;5032900;28;20049;-78
2023/12/21 04:41:49;;;;;;;1.75;0.95;;;9.00;99.90;;;;;;5032626;28;20041;-79
2023/12/21 04:44:14;;;;;;;2.15;0.90;;;9.00;99.90;;;;;;5032503;28;20522;-78
2023/12/21 04:46:40;;;;;;;0.98;0.85;;;8.90;99.90;;;;;;5032480;28;20128;-78
2023/12/21 04:49:06;;;;;;;0.80;0.80;;;9.10;99.90;;;;;;5032419;28;20095;-79
2023/12/21 04:51:32;;;;;;;1.30;0.90;;;9.10;99.90;;;;;;5016223;28;20493;-78
2023/12/21 04:53:57;;;;;;;1.05;0.90;;;9.10;99.90;;;;;;5032635;28;20048;-78
2023/12/21 04:56:23;;;;;;;0.80;0.80;;;9.40;99.90;;;;;;5032527;28;20040;-78
2023/12/21 04:58:49;;;;;;;1.40;1.13;;;9.10;99.90;;;;;;5032602;28;20042;-78
2023/12/21 05:01:14;;;;;;;1.02;0.88;;;9.00;99.90;;;;;;5015853;28;20044;-79
2023/12/21 05:03:40;;;;;;;1.38;0.93;;;9.40;99.90;;;;;;5032157;28;20084;-79
2023/12/21 05:06:06;;;;;;;0.88;0.80;;;9.20;99.90;;;;;;5032080;28;20041;-78
2023/12/21 05:08:31;;;;;;;1.23;1.13;;;9.10;99.90;;;;;;5015742;28;20033;-79
2023/12/21 05:10:57;;;;;;;1.88;1.20;;;9.20;99.90;;;;;;5032312;28;20137;-78
2023/12/21 05:13:23;;;;;;;2.10;1.20;;;9.10;99.90;;;;;;5015509;28;20044;-78
2023/12/21 05:15:48;;;;;;;2.42;1.17;;;9.40;99.90;;;;;;5032107;28;20033;-78
2023/12/21 05:18:14;;;;;;;1.83;1.20;;;9.20;99.90;;;;;;5031977;28;20076;-78
2023/12/21 05:20:40;;;;;;;2.55;1.55;;;9.20;99.90;;;;;;5015377;28;20052;-81
2023/12/21 05:23:06;;;;;;;2.80;1.60;;;9.10;99.90;;;;;;5031757;28;20037;-79
2023/12/21 05:25:32;;;;;;;2.15;1.02;;;9.10;99.90;;;;;;5015697;28;20076;-79
2023/12/21 05:27:57;;;;;;;2.40;1.27;;;9.10;99.90;;;;;;5014822;28;20127;-78
2023/12/21 05:30:23;;;;;;;1.90;1.17;;;9.10;99.90;;;;;;5015194;28;20049;-79
2023/12/21 05:32:49;;;;;;;1.90;1.08;;;9.50;99.90;;;;;;5031579;28;20041;-79
2023/12/21 05:35:15;;;;;;;2.20;1.23;;;9.20;99.90;;;;;;5015410;28;20044;-79
2023/12/21 05:37:40;;;;;;;1.35;1.13;;;9.10;99.90;;;;;;5015162;28;20048;-78
2023/12/21 05:40:07;;;;;;;3.35;1.27;;;9.10;99.90;;;;;;5015682;28;20045;-79
2023/12/21 05:42:32;;;;;;;1.27;0.70;;;9.20;99.90;;;;;;5015429;28;20049;-80
2023/12/21 05:44:58;;;;;;;2.50;1.30;;;9.20;99.90;;;;;;5031490;28;20057;-79
2023/12/21 05:47:24;;;;;;;1.55;0.80;;;9.20;99.90;;;;;;5031431;28;20437;-79
2023/12/21 05:49:50;;;;;;;1.85;0.80;;;9.10;99.90;;;;;;5014850;28;20034;-80
2023/12/21 05:52:16;;;;;;;1.27;0.95;;;9.10;99.90;;;;;;5014976;28;20046;-79
2023/12/21 05:54:41;;;;;;;0.85;0.70;;;9.50;99.90;;;;;;5031243;28;20033;-79
2023/12/21 05:57:10;;;;;;;1.33;0.98;;;9.20;99.90;;;;;;5014758;28;20042;-79
2023/12/21 05:59:37;;;;;;;1.48;0.85;;;9.00;99.90;;;;;;5031587;28;20060;-79
2023/12/21 06:02:03;;;;;;;1.38;1.00;;;9.20;99.90;;;;;;5031116;28;20048;-79
2023/12/21 06:04:29;;;;;;;1.17;1.00;;;9.10;99.90;;;;;;5014984;28;20433;-79
2023/12/21 06:06:57;;;;;;;1.48;0.82;;;9.00;99.90;;;;;;5015299;28;20045;-79
2023/12/21 06:09:23;;;;;;;0.70;0.70;;;9.50;99.90;;;;;;5030883;28;20033;-78
2023/12/21 06:11:49;;;;;;;0.98;0.73;;;9.10;99.90;;;;;;5014642;28;20528;-83
2023/12/21 06:14:14;;;;;;;1.13;0.82;;;9.10;99.90;;;;;;5014612;28;20528;-74
2023/12/21 06:16:40;;;;;;;2.88;1.10;;;9.40;99.90;;;;;;5014710;28;20065;-80
2023/12/21 06:19:09;;;;;;;1.27;1.00;;;9.10;99.90;;;;;;5014569;28;20459;-80
2023/12/21 06:21:38;;;;;;;1.15;0.70;;;9.40;99.90;;;;;;5031136;28;20048;-80
2023/12/21 06:24:05;;;;;;;1.10;0.93;;;9.10;99.90;;;;;;5030933;28;20037;-80
2023/12/21 06:26:31;;;;;;;0.95;0.80;;;9.20;99.90;;;;;;5014587;28;20049;-80
2023/12/21 06:28:57;;;;;;;1.73;1.00;;;9.30;99.90;;;;;;5031759;28;20126;-80
2023/12/21 06:31:23;;;;;;;2.10;0.90;;;9.20;99.90;;;;;;5014720;28;20505;-83
2023/12/21 06:33:49;;;;;;;1.55;0.98;;;9.30;99.90;;;;;;5031289;28;20037;-85
2023/12/21 06:36:15;;;;;;;2.15;1.08;;;9.30;99.90;;;;;;5031168;28;20158;-85
2023/12/21 06:38:41;;;;;;;2.38;0.95;;;9.20;99.90;;;;;;5030862;28;20492;-82
2023/12/21 06:41:07;;;;;;;0.77;0.75;;;9.20;99.90;;;;;;5033051;28;20040;-80
2023/12/21 06:43:33;;;;;;;2.25;1.13;;;9.20;99.90;;;;;;5034749;28;20136;-80
2023/12/21 06:45:58;;;;;;;1.58;1.00;;;9.20;99.90;;;;;;5018827;28;20480;-83
2023/12/21 06:48:25;;;;;;;2.20;1.05;;;9.20;99.90;;;;;;5035164;28;20128;-79
2023/12/21 06:50:51;;;;;;;1.55;0.98;;;9.20;99.90;;;;;;5035193;28;20048;-83
2023/12/21 06:53:17;;;;;;;2.50;1.42;;;9.20;99.90;;;;;;5018830;28;20034;-81
2023/12/21 06:55:43;;;;;;;1.70;0.77;;;9.20;99.90;;;;;;5035353;28;20049;-83
2023/12/21 06:58:08;;;;;;;2.45;1.00;;;9.20;99.90;;;;;;5019912;28;20091;-84
2023/12/21 07:00:35;;;;;;;2.85;1.00;;;9.20;99.90;;;;;;5035786;28;20043;-81
2023/12/21 07:03:00;;;;;;;1.15;0.80;;;9.30;99.90;;;;;;5034855;28;20397;-80
2023/12/21 07:05:26;;;;;;;1.05;0.75;;;9.20;99.90;;;;;;5018042;28;20041;-81
2023/12/21 07:07:54;;;;;;;1.88;1.00;;;9.20;99.90;;;;;;5017874;28;20077;-81
2023/12/21 07:10:20;;;;;;;2.13;1.25;;;9.20;99.90;;;;;;5017773;28;20087;-81
2023/12/21 07:12:47;;;;;;;1.38;0.70;;;9.20;99.90;;;;;;5034703;28;20485;-83
2023/12/21 07:15:12;;;;;;;1.83;0.80;;;9.20;99.90;;;;;;5017899;28;20042;-78
2023/12/21 07:17:38;;;;;;;2.97;1.00;;;9.20;99.90;;;;;;5034094;28;20037;-81
2023/12/21 07:20:04;;;;;;;0.82;0.75;;;9.20;99.90;;;;;;5017635;28;20124;-81
2023/12/21 07:22:30;;;;;;;1.83;0.80;;;9.10;99.90;;;;;;5017540;28;20049;-80
2023/12/21 07:24:56;;;;;;;0.70;0.70;;;9.20;99.90;;;;;;5034628;28;20049;-81
2023/12/21 07:27:21;;;;;;;1.48;0.70;;;9.10;99.90;;;;;;5017493;28;20441;-80
2023/12/21 07:29:49;;;;;;;1.38;0.70;;;9.10;99.90;;;;;;5033769;28;20104;-80
2023/12/21 07:32:15;;;;;;;0.63;0.50;;;9.20;99.90;;;;;;5017337;28;20041;-79
2023/12/21 07:34:41;;;;;;;0.60;0.57;;;9.10;99.90;;;;;;5033885;28;20046;-79
2023/12/21 07:37:08;;;;;;;0.60;0.60;;;9.10;99.90;;;;;;5017221;28;20123;-79
2023/12/21 07:39:34;;;;;;;0.52;0.52;;;9.20;99.90;;;;;;5017364;28;20041;-79
2023/12/21 07:42:01;;;;;;;0.88;0.60;;;9.10;99.90;;;;;;5017148;28;20726;-79
2023/12/21 07:44:26;;;;;;;0.88;0.52;;;9.20;99.90;;;;;;5033555;28;20049;-79
2023/12/21 07:46:52;;;;;;;0.70;0.70;;;9.10;99.90;;;;;;5017095;28;20156;-79
2023/12/21 07:49:18;;;;;;;0.40;0.40;;;9.20;99.90;;;;;;5033881;28;20041;-79
2023/12/21 07:51:43;;;;;;;0.75;0.63;;;9.20;99.90;;;;;;5033342;28;20084;-80
2023/12/21 07:54:09;;;;;;;1.00;0.77;;;9.20;99.90;;;;;;5033522;28;20042;-80
2023/12/21 07:56:35;;;;;;;1.00;0.63;;;9.20;99.90;;;;;;5017226;28;20128;-80
2023/12/21 07:59:04;;;;;;;0.65;0.65;;;9.20;99.90;;;;;;5016965;28;20045;-80
2023/12/21 08:01:31;;;;;;;0.88;0.60;;;9.20;99.90;;;;;;5033447;28;20041;-80
2023/12/21 08:03:57;;;;;;;0.80;0.70;;;9.20;99.90;;;;;;5033448;28;20095;-79
2023/12/21 08:06:22;;;;;;;0.57;0.57;;;9.20;99.90;;;;;;5033503;28;20048;-81
2023/12/21 08:08:49;;;;;;;0.63;0.50;;;9.20;99.90;;;;;;5033647;28;20041;-80
2023/12/21 08:11:16;;;;;;;0.55;0.40;;;9.20;99.90;;;;;;5033059;28;20068;-82
2023/12/21 08:13:42;;;;;;;0.70;0.70;;;9.10;99.90;;;;;;5016434;28;20049;-81
2023/12/21 08:16:08;;;;;;;0.60;0.60;;;9.20;99.90;;;;;;5032952;28;20033;-80
2023/12/21 08:18:33;;;;;;;0.70;0.70;;;9.20;99.90;;;;;;5033139;28;20119;-80
2023/12/21 08:20:59;;;;;;;0.40;0.40;;;9.20;99.90;;;;;;5032892;28;20117;-81
2023/12/21 08:23:24;;;;;;;0.40;0.40;;;9.10;99.90;;;;;;5032885;28;20067;-80
2023/12/21 08:25:50;;;;;;;0.43;0.40;;;9.20;99.90;;;;;;5016397;28;20041;-80
2023/12/21 08:28:17;;;;;;;0.60;0.60;;;9.20;99.90;;;;;;5033081;28;20392;-79
2023/12/21 08:30:43;;;;;;;0.70;0.50;;;9.20;99.90;;;;;;5032598;28;20469;-80
2023/12/21 08:33:09;;;;;;;0.50;0.50;;;9.20;99.90;;;;;;5016235;28;20080;-79
2023/12/21 08:35:36;;;;;;;0.47;0.43;;;9.20;99.90;;;;;;5016124;28;20045;-80
2023/12/21 08:38:03;;;;;;;0.85;0.47;;;9.20;99.90;;;;;;5032768;28;20520;-80
2023/12/21 08:40:29;;;;;;;0.50;0.50;;;9.20;99.90;;;;;;5016108;28;20050;-78
2023/12/21 08:42:54;;;;;;;0.32;0.32;;;9.20;99.90;;;;;;5015676;28;20060;-80
2023/12/21 08:45:21;;;;;;;0.50;0.50;;;9.20;99.90;;;;;;5032532;28;20089;-79
2023/12/21 08:47:47;;;;;;;0.45;0.45;;;9.30;99.90;;;;;;5015979;28;20045;-79
2023/12/21 08:50:13;;;;;;;0.75;0.60;;;9.20;99.90;;;;;;5032185;28;20052;-79
2023/12/21 08:52:39;;;;;;;0.50;0.50;;;9.30;99.90;;;;;;5032203;28;20042;-79
2023/12/21 08:55:05;;;;;;;0.70;0.70;;;;;;;;;;5032178;28;20033;-79
2023/12/21 08:57:32;;;;;;;2.05;0.57;;;;;;;;;;5032179;28;20470;-80
2023/12/21 09:00:02;;;;;;;1.05;0.80;;;;;;;;;;5015583;28;20129;-79
2023/12/21 09:02:28;;;;;;;0.87;0.80;;;;;;;;;;5015559;28;20041;-79
2023/12/21 09:04:54;;;;;;;1.13;0.63;;;9.40;99.90;;;;;;5015044;28;20045;-80
2023/12/21 09:07:19;;;;;;;1.48;0.70;;;9.50;99.90;;;;;;5031753;28;20068;-76
2023/12/21 09:09:45;;;;;;;0.90;0.70;;;9.40;99.90;;;;;;5031793;28;20037;-79
2023/12/21 09:12:11;;;;;;;0.70;0.52;;;9.40;99.90;;;;;;5015327;28;20520;-79
2023/12/21 09:14:36;;;;;;;0.80;0.60;;;9.40;99.90;;;;;;5031721;28;20404;-80
2023/12/21 09:17:03;;;;;;;1.55;0.80;;;9.40;99.90;;;;;;5032103;28;20033;-80
2023/12/21 09:19:29;;;;;;;1.55;0.90;;;9.50;99.90;;;;;;5031614;28;20041;-79
2023/12/21 09:21:55;;;;;;;1.13;0.77;;;9.50;99.90;;;;;;5015615;28;20119;-81
2023/12/21 09:24:21;;;;;;;1.48;0.73;;;9.50;99.90;;;;;;5031544;28;20037;-83
2023/12/21 09:26:46;;;;;;;1.10;0.93;;;9.60;99.90;;;;;;5015085;28;20060;-81
2023/12/21 09:29:13;;;;;;;0.88;0.88;;;9.70;99.90;;;;;;5031389;28;20454;-81
2023/12/21 09:31:39;;;;;;;1.52;0.75;;;;;;;;;;5031701;28;20077;-79
2023/12/21 09:34:07;;;;;;;1.08;0.70;;;9.60;99.90;;;;;;5031637;28;20049;-78
2023/12/21 09:36:33;;;;;;;0.40;0.40;;;9.80;99.90;;;;;;5031317;28;20049;-78
2023/12/21 09:38:59;;;;;;;1.15;0.50;;;9.80;99.90;;;;;;5014945;28;20456;-79
2023/12/21 09:41:24;;;;;;;1.00;0.75;;;9.90;99.90;;;;;;5031430;28;20390;-80
2023/12/21 09:43:52;;;;;;;2.05;1.35;;;9.90;99.90;;;;;;5014803;28;20486;-82
2023/12/21 09:46:21;;;;;;;1.27;0.68;;;;;;;;;;5031133;28;20080;-82
2023/12/21 09:48:47;;;;;;;1.60;1.00;;;9.80;99.90;;;;;;5031321;28;20049;-81
2023/12/21 09:51:16;;;;;;;1.02;0.90;;;9.80;99.90;;;;;;5031145;28;20049;-80
2023/12/21 09:53:43;;;;;;;1.10;1.00;;;9.80;99.90;;;;;;5015154;28;20101;-82
2023/12/21 09:56:13;;;;;;;2.17;1.10;;;9.80;99.90;;;;;;5031126;28;20129;-80
2023/12/21 09:58:39;;;;;;;1.77;1.20;;;9.80;99.90;;;;;;5031084;28;20408;-80
2023/12/21 10:01:05;;;;;;;2.08;1.20;;;9.90;99.90;;;;;;5014666;28;20033;-81
2023/12/21 10:03:32;;;;;;;3.13;1.05;;;9.90;99.90;;;;;;5030982;28;20041;-82
2023/12/21 10:05:58;;;;;;;2.15;1.15;;;9.90;99.90;;;;;;5031242;28;20445;-81
2023/12/21 10:08:23;;;;;;;1.77;1.13;;;9.90;99.90;;;;;;5031320;28;20049;-81
2023/12/21 10:10:49;;;;;;;1.52;0.93;;;9.90;99.90;;;;;;5014494;28;20052;-82
2023/12/21 10:13:16;;;;;;;2.10;1.15;;;;;;;;;;5030956;28;20064;-80
2023/12/21 10:15:42;;;;;;;2.55;0.82;;;;;;;;;;5014796;28;20128;-82
2023/12/21 10:18:12;;;;;;;2.85;1.17;;;;;;;;;;5030841;28;20041;-82
2023/12/21 10:20:39;;;;;;;3.33;1.63;;;;;;;;;;5030933;28;20049;-81
2023/12/21 10:23:05;;;;;;;2.50;0.82;;;;;;;;;;5014389;28;20049;-81
2023/12/21 10:25:32;;;;;;;2.78;0.95;;;;;;;;;;5031189;28;20045;-80
2023/12/21 10:27:58;;;;;;;2.17;1.58;;;;;;;;;;5014483;28;20048;-81
2023/12/21 10:30:24;;;;;;;1.65;1.02;;;;;;;;;;5030662;28;20041;-80
2023/12/21 10:32:52;;;;;;;1.75;0.85;;;;;;;;;;5030907;28;20084;-80
2023/12/21 10:35:18;;;;;;;2.72;1.23;;;;;;;;;;5014756;28;20039;-80
2023/12/21 10:37:46;;;;;;;2.83;1.42;;;;;;;;;;5031380;28;20485;-80
2023/12/21 10:40:15;;;;;;;1.70;1.10;;;;;;;;;;5014477;28;20103;-82
2023/12/21 10:42:48;;;;;;;2.47;1.00;;;;;;;;;;5014778;28;20599;-83
2023/12/21 10:45:16;;;;;;;2.95;1.17;;;;;;;;;;5030761;28;20083;-83
2023/12/21 10:47:55;;;;;;;2.22;1.10;;;;;;;;;;5014521;28;20464;-83
2023/12/21 10:50:21;;;;;;;2.70;0.88;;;;;;;;;;5031053;28;20056;-83
2023/12/21 10:52:48;;;;;;;3.05;1.05;;;;;;;;;;5030743;28;20038;-83
2023/12/21 10:55:17;;;;;;;1.98;1.10;;;;;;;;;;5031084;28;20500;-84
2023/12/21 10:57:44;;;;;;;2.47;1.23;;;;;;;;;;5014102;28;20069;-83
2023/12/21 11:00:17;;;;;;;1.75;1.02;;;;;;;;;;5030976;28;20034;-83
2023/12/21 11:02:46;;;;;;;1.83;1.02;;;10.30;99.90;;;;;;5014323;28;20041;-86
2023/12/21 11:05:20;;;;;;;3.35;1.35;;;10.50;99.90;;;;;;5030975;28;20098;-84
2023/12/21 11:07:50;;;;;;;3.70;1.33;;;10.50;99.90;;;;;;5030929;28;20057;-85
2023/12/21 11:10:17;;;;;;;2.40;1.30;;;10.30;99.90;;;;;;5014567;28;20045;-83
2023/12/21 11:12:43;;;;;;;1.98;1.42;;;10.30;99.90;;;;;;5014355;28;20030;-85
2023/12/21 11:15:11;;;;;;;3.25;1.52;;;10.20;99.90;;;;;;5014247;28;20038;-86
2023/12/21 11:17:40;;;;;;;2.08;0.98;;;10.30;99.90;;;;;;5030688;28;20068;-84
2023/12/21 11:20:09;;;;;;;1.88;1.10;;;10.30;99.90;;;;;;5031159;28;20045;-86
2023/12/21 11:22:39;;;;;;;4.55;1.77;;;10.30;99.90;;;;;;5030795;28;20231;-85
2023/12/21 11:25:12;;;;;;;2.50;1.23;;;10.30;99.90;;;;;;5030550;28;20451;-84
2023/12/21 11:27:39;;;;;;;2.22;1.33;;;10.40;99.90;;;;;;5016881;28;20087;-84
2023/12/21 11:30:12;;;;;;;3.20;1.58;;;10.40;99.90;;;;;;5034439;28;20136;-84
2023/12/21 11:32:43;;;;;;;3.15;1.48;;;10.30;99.90;;;;;;5034238;28;20171;-84
2023/12/21 11:35:19;;;;;;;2.65;1.58;;;10.20;99.90;;;;;;5034449;28;20037;-82
2023/12/21 11:37:49;;;;;;;1.60;1.17;;;10.20;99.90;;;;;;5018135;28;20822;-83
2023/12/21 11:40:17;;;;;;;2.58;1.30;;;10.20;99.90;;;;;;5034183;28;20037;-82
2023/12/21 11:42:48;;;;;;;2.53;1.63;;;10.40;99.90;;;;;;5034680;28;20500;-83
2023/12/21 11:45:30;;;;;;;3.08;1.63;;;10.20;99.90;;;;;;5034236;28;20061;-83
2023/12/21 11:48:01;;;;;;;2.35;1.27;;;10.20;99.90;;;;;;5017934;28;20052;-82
2023/12/21 11:50:30;;;;;;;2.30;1.42;;;10.20;99.90;;;;;;5017708;28;20060;-82
2023/12/21 11:53:10;;;;;;;2.55;1.30;;;10.20;99.90;;;;;;5033816;28;20049;-82
2023/12/21 11:55:42;;;;;;;1.50;1.05;;;10.10;99.90;;;;;;5017877;28;20038;-82
2023/12/21 11:58:18;;;;;;;4.03;1.48;;;10.20;99.90;;;;;;5034071;28;20049;-82
2023/12/21 12:00:56;;;;;;;1.75;0.90;;;10.20;99.90;;;;;;5034211;28;20041;-80
2023/12/21 12:03:28;;;;;;;2.47;1.17;;;10.30;99.90;;;;;;5034545;28;20456;-76
2023/12/21 12:06:01;;;;;;;2.95;1.55;;;10.30;99.90;;;;;;5035093;28;20053;-79
2023/12/21 12:08:26;;;;;;;3.72;1.70;;;10.20;99.90;;;;;;5034961;28;20107;-80
2023/12/21 12:10:59;;;;;;;2.45;1.40;;;10.20;99.90;;;;;;5034352;28;20046;-79
2023/12/21 12:13:24;;;;;;;3.42;1.85;;;10.20;99.90;;;;;;5034057;28;20088;-81
2023/12/21 12:15:53;;;;;;;5.63;1.50;;;10.20;99.90;;;;;;5034440;28;20045;-79
2023/12/21 12:18:21;;;;;;;2.72;1.77;;;10.30;99.90;;;;;;5017330;28;20037;-80
2023/12/21 12:20:48;;;;;;;4.40;2.05;;;10.60;99.90;;;;;;5033870;28;20099;-79
2023/12/21 12:23:14;;;;;;;6.55;2.22;;;10.50;99.90;;;;;;5033275;28;20068;-80
2023/12/21 12:25:41;;;;;;;3.97;1.77;;;10.60;99.90;;;;;;5016859;28;20051;-78
2023/12/21 12:28:08;;;;;;;2.83;1.80;;;10.50;99.90;;;;;;5033618;28;20052;-78
2023/12/21 12:30:37;;;;;;;3.70;1.95;;;10.60;99.90;;;;;;5033453;28;20049;-80
2023/12/21 12:33:05;;;;;;;2.58;1.30;;;10.60;99.90;;;;;;5038190;28;20033;-80
2023/12/21 12:35:37;;;;;;;4.75;2.08;;;10.60;99.90;;;;;;5033043;28;20048;-80
2023/12/21 12:38:09;;;;;;;4.53;2.05;;;10.70;99.90;;;;;;5015109;28;20045;-81
2023/12/21 12:40:35;;;;;;;2.75;1.83;;;10.60;99.90;;;;;;5033275;28;20400;-81
2023/12/21 12:43:01;;;;;;;4.35;1.80;;;10.70;99.90;;;;;;5016603;28;20443;-79
2023/12/21 12:45:27;;;;;;;2.72;1.30;;;10.70;99.90;;;;;;5016455;28;20500;-81
2023/12/21 12:47:54;;;;;;;3.30;1.33;;;10.70;99.90;;;;;;5033043;28;20041;-80
2023/12/21 12:50:23;;;;;;;3.40;1.75;;;10.70;99.90;;;;;;5016318;28;20041;-81
2023/12/21 12:52:49;;;;;;;3.10;1.25;;;10.80;99.90;;;;;;5016285;28;20048;-80
2023/12/21 12:55:15;;;;;;;3.65;1.98;;;10.70;99.90;;;;;;5016343;28;20539;-79
2023/12/21 12:57:48;;;;;;;1.83;1.27;;;10.70;99.90;;;;;;5032817;28;20043;-80
2023/12/21 13:00:18;;;;;;;3.00;1.52;;;10.60;99.90;;;;;;5032903;28;20047;-81